Time,TemperatureF,DewpointF,PressureIn,WindDirection,WindDirectionDegrees,WindSpeedMPH,WindSpeedGustMPH,Humidity,HourlyPrecipIn,Conditions,Clouds,dailyrainin,SoftwareType,DateUTC
2013-04-26 00:00:00,71.5,64.0,30.45,NE,45,0.0,0.0,77,0.00,,,0.00,WUHU21623XXSP,2013-04-26 04:00:00,
2013-04-26 00:01:00,71.5,64.0,30.45,NE,45,0.0,0.0,77,0.00,,,0.00,WUHU21623XXSP,2013-04-26 04:01:00,
2013-04-26 00:06:00,71.5,64.0,30.45,NE,45,0.0,0.0,77,0.00,,,0.00,WUHU21623XXSP,2013-04-26 04:06:00,
2013-04-26 00:11:00,71.3,64.2,30.45,NE,45,0.0,0.0,78,0.00,,,0.00,WUHU21623XXSP,2013-04-26 04:11:00,
2013-04-26 00:16:00,71.1,64.0,30.46,ENE,67,0.0,0.0,78,0.00,,,0.00,WUHU21623XXSP,2013-04-26 04:16:00,
2013-04-26 00:21:00,71.1,64.4,30.46,ENE,67,0.0,0.0,79,0.00,,,0.00,WUHU21623XXSP,2013-04-26 04:21:00,
2013-04-26 00:26:00,71.3,64.5,30.46,NE,45,0.0,0.0,79,0.00,,,0.00,WUHU21623XXSP,2013-04-26 04:26:00,
2013-04-26 00:31:00,71.3,64.5,30.46,ENE,67,0.0,0.0,79,0.00,,,0.00,WUHU21623XXSP,2013-04-26 04:31:00,
2013-04-26 00:36:00,71.3,64.5,30.46,ENE,67,0.0,0.0,79,0.00,,,0.00,WUHU21623XXSP,2013-04-26 04:36:00,
2013-04-26 00:41:00,71.3,64.5,30.46,NE,45,0.0,0.0,79,0.00,,,0.00,WUHU21623XXSP,2013-04-26 04:41:00,
2013-04-26 00:46:00,71.3,64.9,30.46,ESE,112,0.0,0.0,80,0.00,,,0.00,WUHU21623XXSP,2013-04-26 04:46:00,
2013-04-26 00:51:00,71.3,64.9,30.45,ENE,67,0.0,0.0,80,0.00,,,0.00,WUHU21623XXSP,2013-04-26 04:51:00,
2013-04-26 00:56:00,71.3,64.9,30.46,ENE,67,0.0,0.0,80,0.00,,,0.00,WUHU21623XXSP,2013-04-26 04:56:00,
2013-04-26 01:01:00,71.3,64.9,30.45,East,90,0.0,0.0,80,0.00,,,0.00,WUHU21623XXSP,2013-04-26 05:01:00,
2013-04-26 01:07:00,71.3,64.9,30.45,ENE,67,0.0,0.0,80,0.00,,,0.00,WUHU21623XXSP,2013-04-26 05:07:00,
2013-04-26 01:12:00,71.3,64.9,30.45,ENE,67,0.0,0.0,80,0.00,,,0.00,WUHU21623XXSP,2013-04-26 05:12:00,
2013-04-26 01:17:00,71.3,64.9,30.45,NE,45,0.0,0.0,80,0.00,,,0.00,WUHU21623XXSP,2013-04-26 05:17:00,
2013-04-26 01:22:00,71.3,64.9,30.45,ENE,67,0.0,0.0,80,0.00,,,0.00,WUHU21623XXSP,2013-04-26 05:22:00,
2013-04-26 01:27:00,71.3,64.9,30.45,ENE,67,0.0,0.0,80,0.00,,,0.00,WUHU21623XXSP,2013-04-26 05:27:00,
2013-04-26 01:32:00,71.3,64.5,30.45,ENE,67,0.0,0.0,79,0.00,,,0.00,WUHU21623XXSP,2013-04-26 05:32:00,
2013-04-26 01:37:00,71.3,64.5,30.45,ENE,67,0.0,0.0,79,0.00,,,0.00,WUHU21623XXSP,2013-04-26 05:37:00,
2013-04-26 01:42:00,71.1,64.4,30.45,ENE,67,0.0,0.0,79,0.00,,,0.00,WUHU21623XXSP,2013-04-26 05:42:00,
2013-04-26 01:47:00,71.1,64.4,30.44,ENE,67,0.0,0.0,79,0.00,,,0.00,WUHU21623XXSP,2013-04-26 05:47:00,
2013-04-26 01:52:00,71.0,64.3,30.44,ENE,67,0.0,0.0,79,0.00,,,0.00,WUHU21623XXSP,2013-04-26 05:52:00,
2013-04-26 01:57:00,70.8,64.1,30.44,ENE,67,0.0,0.0,79,0.00,,,0.00,WUHU21623XXSP,2013-04-26 05:57:00,
2013-04-26 02:02:00,70.4,63.7,30.43,ENE,67,0.0,0.0,79,0.00,,,0.00,WUHU21623XXSP,2013-04-26 06:02:00,
2013-04-26 02:07:00,70.4,63.7,30.43,ENE,67,0.0,0.0,79,0.00,,,0.00,WUHU21623XXSP,2013-04-26 06:07:00,
2013-04-26 02:12:00,70.4,64.0,30.43,ENE,67,0.0,0.0,80,0.00,,,0.00,WUHU21623XXSP,2013-04-26 06:12:00,
2013-04-26 02:17:00,70.2,63.8,30.43,ENE,67,0.0,0.0,80,0.00,,,0.00,WUHU21623XXSP,2013-04-26 06:17:00,
2013-04-26 02:22:00,70.2,63.8,30.43,ENE,67,0.0,0.0,80,0.00,,,0.00,WUHU21623XXSP,2013-04-26 06:22:00,
2013-04-26 02:27:00,70.2,63.8,30.43,ENE,67,0.0,0.0,80,0.00,,,0.00,WUHU21623XXSP,2013-04-26 06:27:00,
2013-04-26 02:32:00,70.2,63.8,30.43,ENE,67,0.0,0.0,80,0.00,,,0.00,WUHU21623XXSP,2013-04-26 06:32:00,
2013-04-26 02:37:00,70.4,64.0,30.43,NE,45,0.0,0.0,80,0.00,,,0.00,WUHU21623XXSP,2013-04-26 06:37:00,
2013-04-26 02:42:00,70.4,64.0,30.43,NE,45,0.0,0.0,80,0.00,,,0.00,WUHU21623XXSP,2013-04-26 06:42:00,
2013-04-26 02:47:00,70.6,64.2,30.43,NE,45,0.0,0.0,80,0.00,,,0.00,WUHU21623XXSP,2013-04-26 06:47:00,
2013-04-26 02:52:00,70.8,64.1,30.43,NE,45,0.0,0.0,79,0.00,,,0.00,WUHU21623XXSP,2013-04-26 06:52:00,
2013-04-26 02:57:00,70.8,64.1,30.43,NE,45,0.0,0.0,79,0.00,,,0.00,WUHU21623XXSP,2013-04-26 06:57:00,
2013-04-26 03:03:00,70.8,64.1,30.42,NE,45,0.0,0.0,79,0.00,,,0.00,WUHU21623XXSP,2013-04-26 07:03:00,
2013-04-26 03:08:00,71.0,64.3,30.42,NE,45,0.0,0.0,79,0.00,,,0.00,WUHU21623XXSP,2013-04-26 07:08:00,
2013-04-26 03:13:00,71.0,64.3,30.42,NE,45,0.0,0.0,79,0.00,,,0.00,WUHU21623XXSP,2013-04-26 07:13:00,
2013-04-26 03:18:00,71.0,64.3,30.42,NE,45,0.0,0.0,79,0.00,,,0.00,WUHU21623XXSP,2013-04-26 07:18:00,
2013-04-26 03:23:00,71.0,63.9,30.42,NE,45,0.0,0.0,78,0.00,,,0.00,WUHU21623XXSP,2013-04-26 07:23:00,
2013-04-26 03:28:00,70.8,63.7,30.42,NE,45,0.0,0.0,78,0.00,,,0.00,WUHU21623XXSP,2013-04-26 07:28:00,
2013-04-26 03:33:00,70.8,63.7,30.42,NE,45,0.0,0.0,78,0.00,,,0.00,WUHU21623XXSP,2013-04-26 07:33:00,
2013-04-26 03:38:00,70.8,63.7,30.42,NE,45,0.0,0.0,78,0.00,,,0.00,WUHU21623XXSP,2013-04-26 07:38:00,
2013-04-26 03:43:00,70.8,64.1,30.42,NE,45,0.0,0.0,79,0.00,,,0.00,WUHU21623XXSP,2013-04-26 07:43:00,
2013-04-26 03:48:00,70.4,63.7,30.41,NE,45,0.0,0.0,79,0.00,,,0.00,WUHU21623XXSP,2013-04-26 07:48:00,
2013-04-26 03:53:00,70.4,63.3,30.41,NE,45,0.0,0.0,78,0.00,,,0.00,WUHU21623XXSP,2013-04-26 07:53:00,
2013-04-26 03:58:00,70.2,63.5,30.41,NE,45,0.0,0.0,79,0.00,,,0.00,WUHU21623XXSP,2013-04-26 07:58:00,
2013-04-26 04:03:00,69.9,63.2,30.41,NE,45,0.0,0.0,79,0.00,,,0.00,WUHU21623XXSP,2013-04-26 08:03:00,
2013-04-26 04:08:00,69.7,63.0,30.41,NE,45,0.0,0.0,79,0.00,,,0.00,WUHU21623XXSP,2013-04-26 08:08:00,
2013-04-26 04:13:00,69.5,63.1,30.41,NE,45,0.0,0.0,80,0.00,,,0.00,WUHU21623XXSP,2013-04-26 08:13:00,
2013-04-26 04:18:00,69.3,62.9,30.41,NE,45,0.0,0.0,80,0.00,,,0.00,WUHU21623XXSP,2013-04-26 08:18:00,
2013-04-26 04:23:00,69.0,62.7,30.40,NE,45,0.0,0.0,80,0.00,,,0.00,WUHU21623XXSP,2013-04-26 08:23:00,
2013-04-26 04:28:00,68.6,62.6,30.40,NE,45,0.0,0.0,81,0.00,,,0.00,WUHU21623XXSP,2013-04-26 08:28:00,
2013-04-26 04:33:00,68.6,62.6,30.40,NE,45,0.0,0.0,81,0.00,,,0.00,WUHU21623XXSP,2013-04-26 08:33:00,
2013-04-26 04:38:00,68.4,62.7,30.40,NE,45,0.0,0.0,82,0.00,,,0.00,WUHU21623XXSP,2013-04-26 08:38:00,
2013-04-26 04:43:00,68.1,62.5,30.40,NE,45,0.0,0.0,82,0.00,,,0.00,WUHU21623XXSP,2013-04-26 08:43:00,
2013-04-26 04:48:00,68.1,62.5,30.40,NE,45,0.0,0.0,82,0.00,,,0.00,WUHU21623XXSP,2013-04-26 08:48:00,
2013-04-26 04:53:00,67.7,62.1,30.40,NE,45,0.0,0.0,82,0.00,,,0.00,WUHU21623XXSP,2013-04-26 08:53:00,
2013-04-26 04:58:00,67.7,62.4,30.40,NE,45,0.0,0.0,83,0.00,,,0.00,WUHU21623XXSP,2013-04-26 08:58:00,
2013-04-26 05:03:00,67.5,62.2,30.40,NE,45,0.0,0.0,83,0.00,,,0.00,WUHU21623XXSP,2013-04-26 09:03:00,
2013-04-26 05:08:00,67.4,62.1,30.40,NE,45,0.0,0.0,83,0.00,,,0.00,WUHU21623XXSP,2013-04-26 09:08:00,
2013-04-26 05:13:00,67.2,61.9,30.40,NE,45,0.0,0.0,83,0.00,,,0.00,WUHU21623XXSP,2013-04-26 09:13:00,
2013-04-26 05:19:00,67.0,62.0,30.40,NE,45,0.0,0.0,84,0.00,,,0.00,WUHU21623XXSP,2013-04-26 09:19:00,
2013-04-26 05:24:00,66.8,61.8,30.40,NE,45,0.0,0.0,84,0.00,,,0.00,WUHU21623XXSP,2013-04-26 09:24:00,
2013-04-26 05:29:00,66.8,61.8,30.40,NE,45,0.0,0.0,84,0.00,,,0.00,WUHU21623XXSP,2013-04-26 09:29:00,
2013-04-26 05:34:00,66.8,62.2,30.41,NE,45,0.0,0.0,85,0.00,,,0.00,WUHU21623XXSP,2013-04-26 09:34:00,
2013-04-26 05:39:00,66.8,62.2,30.41,NE,45,0.0,0.0,85,0.00,,,0.00,WUHU21623XXSP,2013-04-26 09:39:00,
2013-04-26 05:44:00,66.6,62.0,30.41,NE,45,0.0,0.0,85,0.00,,,0.00,WUHU21623XXSP,2013-04-26 09:44:00,
2013-04-26 05:49:00,66.6,62.0,30.41,NE,45,0.0,0.0,85,0.00,,,0.00,WUHU21623XXSP,2013-04-26 09:49:00,
2013-04-26 05:54:00,66.6,62.3,30.41,NE,45,0.0,0.0,86,0.00,,,0.00,WUHU21623XXSP,2013-04-26 09:54:00,
2013-04-26 05:59:00,66.5,62.2,30.42,NE,45,0.0,0.0,86,0.00,,,0.00,WUHU21623XXSP,2013-04-26 09:59:00,
2013-04-26 06:04:00,66.5,62.2,30.41,NE,45,0.0,0.0,86,0.00,,,0.00,WUHU21623XXSP,2013-04-26 10:04:00,
2013-04-26 06:09:00,66.3,62.0,30.42,NE,45,0.0,0.0,86,0.00,,,0.00,WUHU21623XXSP,2013-04-26 10:09:00,
2013-04-26 06:14:00,66.3,62.0,30.42,NE,45,0.0,0.0,86,0.00,,,0.00,WUHU21623XXSP,2013-04-26 10:14:00,
2013-04-26 06:19:00,66.1,61.8,30.42,NE,45,0.0,0.0,86,0.00,,,0.00,WUHU21623XXSP,2013-04-26 10:19:00,
2013-04-26 06:24:00,65.9,61.6,30.42,NE,45,0.0,0.0,86,0.00,,,0.00,WUHU21623XXSP,2013-04-26 10:24:00,
2013-04-26 06:29:00,65.9,61.9,30.42,NE,45,0.0,0.0,87,0.00,,,0.00,WUHU21623XXSP,2013-04-26 10:29:00,
2013-04-26 06:34:00,65.7,61.7,30.42,NE,45,0.0,0.0,87,0.00,,,0.00,WUHU21623XXSP,2013-04-26 10:34:00,
2013-04-26 06:39:00,65.7,61.7,30.42,NE,45,0.0,0.0,87,0.00,,,0.00,WUHU21623XXSP,2013-04-26 10:39:00,
2013-04-26 06:44:00,65.7,61.7,30.42,NE,45,0.0,0.0,87,0.00,,,0.00,WUHU21623XXSP,2013-04-26 10:44:00,
2013-04-26 06:49:00,65.6,61.9,30.42,NE,45,0.0,0.0,88,0.00,,,0.00,WUHU21623XXSP,2013-04-26 10:49:00,
2013-04-26 06:54:00,65.4,61.7,30.42,NE,45,0.0,0.0,88,0.00,,,0.00,WUHU21623XXSP,2013-04-26 10:54:00,
2013-04-26 06:59:00,65.4,61.7,30.43,NE,45,0.0,0.0,88,0.00,,,0.00,WUHU21623XXSP,2013-04-26 10:59:00,
2013-04-26 07:04:00,65.4,61.7,30.43,NE,45,0.0,0.0,88,0.00,,,0.00,WUHU21623XXSP,2013-04-26 11:04:00,
2013-04-26 07:09:00,65.2,61.2,30.43,NE,45,0.0,0.0,87,0.00,,,0.00,WUHU21623XXSP,2013-04-26 11:09:00,
2013-04-26 07:15:00,65.2,61.5,30.43,NE,45,0.0,0.0,88,0.00,,,0.00,WUHU21623XXSP,2013-04-26 11:15:00,
2013-04-26 07:20:00,65.4,61.7,30.44,NE,45,0.0,0.0,88,0.00,,,0.00,WUHU21623XXSP,2013-04-26 11:20:00,
2013-04-26 07:25:00,65.6,61.9,30.44,NE,45,0.0,0.0,88,0.00,,,0.00,WUHU21623XXSP,2013-04-26 11:25:00,
2013-04-26 07:30:00,65.7,62.0,30.44,NE,45,0.0,0.0,88,0.00,,,0.00,WUHU21623XXSP,2013-04-26 11:30:00,
2013-04-26 07:35:00,65.9,62.2,30.44,NE,45,0.0,0.0,88,0.00,,,0.00,WUHU21623XXSP,2013-04-26 11:35:00,
2013-04-26 07:40:00,66.3,62.6,30.44,NE,45,0.0,0.0,88,0.00,,,0.00,WUHU21623XXSP,2013-04-26 11:40:00,
2013-04-26 07:45:00,66.6,62.9,30.44,NE,45,0.0,0.0,88,0.00,,,0.00,WUHU21623XXSP,2013-04-26 11:45:00,
2013-04-26 07:50:00,67.0,63.6,30.45,NE,45,0.0,0.0,89,0.00,,,0.00,WUHU21623XXSP,2013-04-26 11:50:00,
2013-04-26 07:55:00,67.5,64.1,30.45,NE,45,0.0,0.0,89,0.00,,,0.00,WUHU21623XXSP,2013-04-26 11:55:00,
2013-04-26 08:00:00,69.3,66.2,30.44,NE,45,0.0,0.0,90,0.00,,,0.00,WUHU21623XXSP,2013-04-26 12:00:00,
2013-04-26 08:05:00,72.2,68.4,30.45,NE,45,0.0,0.0,88,0.00,,,0.00,WUHU21623XXSP,2013-04-26 12:05:00,
2013-04-26 08:10:00,74.7,69.6,30.45,NE,45,0.0,0.0,84,0.00,,,0.00,WUHU21623XXSP,2013-04-26 12:10:00,
2013-04-26 08:15:00,76.9,70.4,30.45,NE,45,0.0,0.0,80,0.00,,,0.00,WUHU21623XXSP,2013-04-26 12:15:00,
2013-04-26 08:20:00,78.2,70.2,30.45,NE,45,0.0,0.0,76,0.00,,,0.00,WUHU21623XXSP,2013-04-26 12:20:00,
2013-04-26 08:25:00,79.2,70.0,30.45,NE,45,0.0,0.0,73,0.00,,,0.00,WUHU21623XXSP,2013-04-26 12:25:00,
2013-04-26 08:30:00,79.8,69.8,30.45,NE,45,0.0,0.0,71,0.00,,,0.00,WUHU21623XXSP,2013-04-26 12:30:00,
2013-04-26 08:35:00,80.1,68.8,30.45,NE,45,0.0,0.0,68,0.00,,,0.00,WUHU21623XXSP,2013-04-26 12:35:00,
2013-04-26 08:40:00,79.8,68.1,30.45,ESE,112,0.0,0.0,67,0.00,,,0.00,WUHU21623XXSP,2013-04-26 12:40:00,
2013-04-26 08:46:00,79.2,67.5,30.46,ESE,112,0.0,0.0,67,0.00,,,0.00,WUHU21623XXSP,2013-04-26 12:46:00,
2013-04-26 08:51:00,78.7,67.1,30.46,ESE,112,0.0,0.0,67,0.00,,,0.00,WUHU21623XXSP,2013-04-26 12:51:00,
2013-04-26 08:56:00,78.7,67.5,30.46,ESE,112,0.0,0.0,68,0.00,,,0.00,WUHU21623XXSP,2013-04-26 12:56:00,
2013-04-26 09:01:00,78.9,67.2,30.46,South,180,0.0,0.0,67,0.00,,,0.00,WUHU21623XXSP,2013-04-26 13:01:00,
2013-04-26 09:06:00,79.2,67.5,30.46,South,180,0.0,0.0,67,0.00,,,0.00,WUHU21623XXSP,2013-04-26 13:06:00,
2013-04-26 09:11:00,79.4,67.7,30.47,SSE,157,0.0,0.0,67,0.00,,,0.00,WUHU21623XXSP,2013-04-26 13:11:00,
2013-04-26 09:16:00,79.8,67.2,30.47,SSE,157,0.0,0.0,65,0.00,,,0.00,WUHU21623XXSP,2013-04-26 13:16:00,
2013-04-26 09:21:00,80.0,67.4,30.47,SW,225,0.0,0.0,65,0.00,,,0.00,WUHU21623XXSP,2013-04-26 13:21:00,
2013-04-26 09:26:00,80.1,67.5,30.47,SW,225,0.0,0.0,65,0.00,,,0.00,WUHU21623XXSP,2013-04-26 13:26:00,
2013-04-26 09:31:00,80.7,67.2,30.47,SW,225,0.0,0.0,63,0.00,,,0.00,WUHU21623XXSP,2013-04-26 13:31:00,
2013-04-26 09:36:00,81.0,67.0,30.47,SW,225,0.0,0.0,62,0.00,,,0.00,WUHU21623XXSP,2013-04-26 13:36:00,
2013-04-26 09:41:00,81.2,67.2,30.47,SSW,202,0.0,0.0,62,0.00,,,0.00,WUHU21623XXSP,2013-04-26 13:41:00,
2013-04-26 09:46:00,81.9,67.9,30.48,SSW,202,0.0,0.0,62,0.00,,,0.00,WUHU21623XXSP,2013-04-26 13:46:00,
2013-04-26 09:51:00,82.3,67.3,30.48,SSW,202,0.0,0.0,60,0.00,,,0.00,WUHU21623XXSP,2013-04-26 13:51:00,
2013-04-26 09:56:00,82.1,66.6,30.48,SSW,202,0.0,0.0,59,0.00,,,0.00,WUHU21623XXSP,2013-04-26 13:56:00,
2013-04-26 10:01:00,82.1,66.6,30.48,ESE,112,0.0,0.0,59,0.00,,,0.00,WUHU21623XXSP,2013-04-26 14:01:00,
2013-04-26 10:06:00,82.3,66.8,30.49,SE,135,0.0,0.0,59,0.00,,,0.00,WUHU21623XXSP,2013-04-26 14:06:00,
2013-04-26 10:11:00,82.1,66.1,30.48,NE,45,0.0,0.0,58,0.00,,,0.00,WUHU21623XXSP,2013-04-26 14:11:00,
2013-04-26 10:16:00,82.5,67.0,30.48,SE,135,0.0,0.0,59,0.00,,,0.00,WUHU21623XXSP,2013-04-26 14:16:00,
2013-04-26 10:21:00,82.8,66.7,30.48,East,90,0.0,0.0,58,0.00,,,0.00,WUHU21623XXSP,2013-04-26 14:21:00,
2013-04-26 10:26:00,83.4,67.3,30.48,ESE,112,0.0,0.0,58,0.00,,,0.00,WUHU21623XXSP,2013-04-26 14:26:00,
2013-04-26 10:31:00,83.9,67.3,30.49,ESE,112,0.0,0.0,57,0.00,,,0.00,WUHU21623XXSP,2013-04-26 14:31:00,
2013-04-26 10:36:00,84.1,67.5,30.49,ENE,67,0.0,0.0,57,0.00,,,0.00,WUHU21623XXSP,2013-04-26 14:36:00,
2013-04-26 10:41:00,83.7,67.1,30.49,SE,135,0.0,0.0,57,0.00,,,0.00,WUHU21623XXSP,2013-04-26 14:41:00,
2013-04-26 10:46:00,83.4,66.8,30.49,SE,135,0.0,0.0,57,0.00,,,0.00,WUHU21623XXSP,2013-04-26 14:46:00,
2013-04-26 10:51:00,83.2,67.1,30.49,East,90,0.0,0.0,58,0.00,,,0.00,WUHU21623XXSP,2013-04-26 14:51:00,
2013-04-26 10:56:00,83.0,66.9,30.50,SE,135,0.0,0.0,58,0.00,,,0.00,WUHU21623XXSP,2013-04-26 14:56:00,
2013-04-26 11:02:00,83.2,67.1,30.49,ESE,112,0.0,0.0,58,0.00,,,0.00,WUHU21623XXSP,2013-04-26 15:02:00,
2013-04-26 11:07:00,83.4,67.3,30.50,ESE,112,0.0,0.0,58,0.00,,,0.00,WUHU21623XXSP,2013-04-26 15:07:00,
2013-04-26 11:12:00,83.4,67.3,30.50,ENE,67,0.0,0.0,58,0.00,,,0.00,WUHU21623XXSP,2013-04-26 15:12:00,
2013-04-26 11:17:00,83.4,66.8,30.50,ENE,67,0.0,0.0,57,0.00,,,0.00,WUHU21623XXSP,2013-04-26 15:17:00,
2013-04-26 11:22:00,83.4,66.8,30.50,ESE,112,0.0,0.0,57,0.00,,,0.00,WUHU21623XXSP,2013-04-26 15:22:00,
2013-04-26 11:27:00,83.7,67.6,30.50,ESE,112,0.0,0.0,58,0.00,,,0.00,WUHU21623XXSP,2013-04-26 15:27:00,
2013-04-26 11:32:00,84.1,67.5,30.50,East,90,0.0,0.0,57,0.00,,,0.00,WUHU21623XXSP,2013-04-26 15:32:00,
2013-04-26 11:37:00,83.9,66.7,30.50,ENE,67,0.0,0.0,56,0.00,,,0.00,WUHU21623XXSP,2013-04-26 15:37:00,
2013-04-26 11:42:00,84.1,67.5,30.50,East,90,0.0,0.0,57,0.00,,,0.00,WUHU21623XXSP,2013-04-26 15:42:00,
2013-04-26 11:47:00,84.8,67.6,30.50,ESE,112,0.0,0.0,56,0.00,,,0.00,WUHU21623XXSP,2013-04-26 15:47:00,
2013-04-26 11:52:00,85.0,67.2,30.50,ENE,67,0.0,0.0,55,0.00,,,0.00,WUHU21623XXSP,2013-04-26 15:52:00,
2013-04-26 11:57:00,85.2,66.9,30.50,ENE,67,0.0,0.0,54,0.00,,,0.00,WUHU21623XXSP,2013-04-26 15:57:00,
2013-04-26 12:02:00,85.4,67.1,30.49,SE,135,0.0,0.0,54,0.00,,,0.00,WUHU21623XXSP,2013-04-26 16:02:00,
2013-04-26 12:07:00,85.5,66.6,30.49,NE,45,0.0,0.0,53,0.00,,,0.00,WUHU21623XXSP,2013-04-26 16:07:00,
2013-04-26 12:12:00,85.5,67.2,30.49,East,90,0.0,0.0,54,0.00,,,0.00,WUHU21623XXSP,2013-04-26 16:12:00,
2013-04-26 12:17:00,85.7,66.8,30.49,NE,45,0.0,0.0,53,0.00,,,0.00,WUHU21623XXSP,2013-04-26 16:17:00,
2013-04-26 12:22:00,85.9,67.0,30.48,NNE,22,0.0,0.0,53,0.00,,,0.00,WUHU21623XXSP,2013-04-26 16:22:00,
2013-04-26 12:27:00,86.1,66.6,30.48,ENE,67,0.0,0.0,52,0.00,,,0.00,WUHU21623XXSP,2013-04-26 16:27:00,
2013-04-26 12:32:00,86.1,66.6,30.48,ESE,112,0.0,0.0,52,0.00,,,0.00,WUHU21623XXSP,2013-04-26 16:32:00,
2013-04-26 12:37:00,86.6,67.6,30.48,SE,135,0.0,0.0,53,0.00,,,0.00,WUHU21623XXSP,2013-04-26 16:37:00,
2013-04-26 12:42:00,86.6,66.5,30.48,ENE,67,0.0,0.0,51,0.00,,,0.00,WUHU21623XXSP,2013-04-26 16:42:00,
2013-04-26 12:47:00,86.6,67.1,30.48,SSE,157,0.0,0.0,52,0.00,,,0.00,WUHU21623XXSP,2013-04-26 16:47:00,
2013-04-26 12:52:00,87.0,66.9,30.48,SE,135,0.0,0.0,51,0.00,,,0.00,WUHU21623XXSP,2013-04-26 16:52:00,
2013-04-26 12:57:00,87.2,66.5,30.48,South,180,0.0,0.0,50,0.00,,,0.00,WUHU21623XXSP,2013-04-26 16:57:00,
2013-04-26 13:02:00,87.5,66.7,30.47,ESE,112,0.0,0.0,50,0.00,,,0.00,WUHU21623XXSP,2013-04-26 17:02:00,
2013-04-26 13:07:00,87.9,65.9,30.47,SE,135,0.0,0.0,48,0.00,,,0.00,WUHU21623XXSP,2013-04-26 17:07:00,
2013-04-26 13:12:00,87.9,65.9,30.47,ESE,112,0.0,0.0,48,0.00,,,0.00,WUHU21623XXSP,2013-04-26 17:12:00,
2013-04-26 13:17:00,88.1,66.7,30.47,SE,135,0.0,0.0,49,0.00,,,0.00,WUHU21623XXSP,2013-04-26 17:17:00,
2013-04-26 13:22:00,88.4,65.7,30.47,SE,135,0.0,0.0,47,0.00,,,0.00,WUHU21623XXSP,2013-04-26 17:22:00,
2013-04-26 13:27:00,88.8,66.1,30.46,ESE,112,0.0,0.0,47,0.00,,,0.00,WUHU21623XXSP,2013-04-26 17:27:00,
2013-04-26 13:32:00,89.0,66.3,30.46,SE,135,0.0,0.0,47,0.00,,,0.00,WUHU21623XXSP,2013-04-26 17:32:00,
2013-04-26 13:38:00,89.1,66.4,30.46,SE,135,0.0,0.0,47,0.00,,,0.00,WUHU21623XXSP,2013-04-26 17:38:00,
2013-04-26 13:43:00,89.3,66.5,30.46,South,180,0.0,0.0,47,0.00,,,0.00,WUHU21623XXSP,2013-04-26 17:43:00,
2013-04-26 13:47:00,89.5,66.1,30.46,SE,135,0.0,0.0,46,0.00,,,0.00,WUHU21623XXSP,2013-04-26 17:47:00,
2013-04-26 13:52:00,89.7,66.3,30.46,SE,135,0.0,0.0,46,0.00,,,0.00,WUHU21623XXSP,2013-04-26 17:52:00,
2013-04-26 13:58:00,89.7,66.3,30.46,SSE,157,0.0,0.0,46,0.00,,,0.00,WUHU21623XXSP,2013-04-26 17:58:00,
2013-04-26 14:03:00,90.0,65.9,30.46,ENE,67,0.0,0.0,45,0.00,,,0.00,WUHU21623XXSP,2013-04-26 18:03:00,
2013-04-26 14:08:00,89.5,64.8,30.46,ENE,67,0.0,0.0,44,0.00,,,0.00,WUHU21623XXSP,2013-04-26 18:08:00,
2013-04-26 14:13:00,89.3,65.9,30.46,SW,225,0.0,0.0,46,0.00,,,0.00,WUHU21623XXSP,2013-04-26 18:13:00,
2013-04-26 14:18:00,89.7,66.3,30.46,ESE,112,0.0,0.0,46,0.00,,,0.00,WUHU21623XXSP,2013-04-26 18:18:00,
2013-04-26 14:23:00,89.7,65.6,30.46,SE,135,0.0,0.0,45,0.00,,,0.00,WUHU21623XXSP,2013-04-26 18:23:00,
2013-04-26 14:28:00,89.9,65.1,30.46,ENE,67,0.0,0.0,44,0.00,,,0.00,WUHU21623XXSP,2013-04-26 18:28:00,
2013-04-26 14:33:00,89.9,65.8,30.45,SSE,157,0.0,0.0,45,0.00,,,0.00,WUHU21623XXSP,2013-04-26 18:33:00,
2013-04-26 14:38:00,90.0,65.9,30.46,SE,135,0.0,0.0,45,0.00,,,0.00,WUHU21623XXSP,2013-04-26 18:38:00,
2013-04-26 14:43:00,90.2,65.4,30.45,ESE,112,0.0,0.0,44,0.00,,,0.00,WUHU21623XXSP,2013-04-26 18:43:00,
2013-04-26 14:48:00,90.2,65.4,30.45,ESE,112,0.0,0.0,44,0.00,,,0.00,WUHU21623XXSP,2013-04-26 18:48:00,
2013-04-26 14:53:00,90.2,64.7,30.45,ENE,67,0.0,0.0,43,0.00,,,0.00,WUHU21623XXSP,2013-04-26 18:53:00,
2013-04-26 14:58:00,89.9,65.1,30.44,SE,135,0.0,0.0,44,0.00,,,0.00,WUHU21623XXSP,2013-04-26 18:58:00,
2013-04-26 15:03:00,89.9,65.1,30.45,ESE,112,0.0,0.0,44,0.00,,,0.00,WUHU21623XXSP,2013-04-26 19:03:00,
2013-04-26 15:08:00,90.2,65.4,30.45,SW,225,0.0,0.0,44,0.00,,,0.00,WUHU21623XXSP,2013-04-26 19:08:00,
2013-04-26 15:13:00,90.6,65.8,30.45,South,180,0.0,0.0,44,0.00,,,0.00,WUHU21623XXSP,2013-04-26 19:13:00,
2013-04-26 15:18:00,90.6,67.7,30.45,West,270,0.0,0.0,47,0.00,,,0.00,WUHU21623XXSP,2013-04-26 19:18:00,
2013-04-26 15:23:00,90.0,67.8,30.45,WNW,292,0.0,0.0,48,0.00,,,0.00,WUHU21623XXSP,2013-04-26 19:23:00,
2013-04-26 15:28:00,89.3,67.8,30.45,WSW,247,0.0,0.0,49,0.00,,,0.00,WUHU21623XXSP,2013-04-26 19:28:00,
2013-04-26 15:33:00,88.8,67.9,30.44,West,270,0.0,0.0,50,0.00,,,0.00,WUHU21623XXSP,2013-04-26 19:33:00,
2013-04-26 15:38:00,88.8,67.9,30.44,WNW,292,0.0,0.0,50,0.00,,,0.00,WUHU21623XXSP,2013-04-26 19:38:00,
2013-04-26 15:43:00,87.9,68.3,30.43,NW,315,0.0,0.0,52,0.00,,,0.00,WUHU21623XXSP,2013-04-26 19:43:00,
2013-04-26 15:48:00,87.3,68.3,30.43,West,270,0.0,0.0,53,0.00,,,0.00,WUHU21623XXSP,2013-04-26 19:48:00,
2013-04-26 15:53:00,87.5,68.5,30.43,WNW,292,0.0,0.0,53,0.00,,,0.00,WUHU21623XXSP,2013-04-26 19:53:00,
2013-04-26 15:59:00,87.3,68.3,30.43,WNW,292,0.0,0.0,53,0.00,,,0.00,WUHU21623XXSP,2013-04-26 19:59:00,
2013-04-26 16:04:00,86.6,68.2,30.42,West,270,0.0,0.0,54,0.00,,,0.00,WUHU21623XXSP,2013-04-26 20:04:00,
2013-04-26 16:09:00,86.6,68.7,30.42,NW,315,0.0,0.0,55,0.00,,,0.00,WUHU21623XXSP,2013-04-26 20:09:00,
2013-04-26 16:14:00,86.8,68.9,30.42,WNW,292,0.0,0.0,55,0.00,,,0.00,WUHU21623XXSP,2013-04-26 20:14:00,
2013-04-26 16:19:00,87.0,69.1,30.42,North,0,0.0,0.0,55,0.00,,,0.00,WUHU21623XXSP,2013-04-26 20:19:00,
2013-04-26 16:24:00,86.6,68.7,30.42,WSW,247,0.0,0.0,55,0.00,,,0.00,WUHU21623XXSP,2013-04-26 20:24:00,
2013-04-26 16:29:00,86.4,68.6,30.42,NW,315,0.0,0.0,55,0.00,,,0.00,WUHU21623XXSP,2013-04-26 20:29:00,
2013-04-26 16:34:00,86.1,68.8,30.42,NNW,337,0.0,0.0,56,0.00,,,0.00,WUHU21623XXSP,2013-04-26 20:34:00,
2013-04-26 16:39:00,86.1,69.3,30.42,NW,315,0.0,0.0,57,0.00,,,0.00,WUHU21623XXSP,2013-04-26 20:39:00,
2013-04-26 16:44:00,86.1,69.3,30.42,West,270,0.0,0.0,57,0.00,,,0.00,WUHU21623XXSP,2013-04-26 20:44:00,
2013-04-26 16:49:00,85.7,69.0,30.41,NW,315,0.0,0.0,57,0.00,,,0.00,WUHU21623XXSP,2013-04-26 20:49:00,
2013-04-26 16:54:00,85.4,69.2,30.41,North,0,0.0,0.0,58,0.00,,,0.00,WUHU21623XXSP,2013-04-26 20:54:00,
2013-04-26 16:59:00,85.5,69.3,30.41,NNW,337,0.0,0.0,58,0.00,,,0.00,WUHU21623XXSP,2013-04-26 20:59:00,
2013-04-26 17:04:00,85.4,69.2,30.41,NNW,337,0.0,0.0,58,0.00,,,0.00,WUHU21623XXSP,2013-04-26 21:04:00,
2013-04-26 17:09:00,84.8,69.1,30.42,NNW,337,0.0,0.0,59,0.00,,,0.00,WUHU21623XXSP,2013-04-26 21:09:00,
2013-04-26 17:14:00,84.8,69.1,30.41,NNW,337,0.0,0.0,59,0.00,,,0.00,WUHU21623XXSP,2013-04-26 21:14:00,
2013-04-26 17:19:00,84.6,68.9,30.42,WNW,292,0.0,0.0,59,0.00,,,0.00,WUHU21623XXSP,2013-04-26 21:19:00,
2013-04-26 17:24:00,84.8,69.1,30.41,NW,315,0.0,0.0,59,0.00,,,0.00,WUHU21623XXSP,2013-04-26 21:24:00,
2013-04-26 17:29:00,84.6,69.4,30.41,WNW,292,0.0,0.0,60,0.00,,,0.00,WUHU21623XXSP,2013-04-26 21:29:00,
2013-04-26 17:34:00,84.3,69.7,30.40,NNW,337,0.0,0.0,61,0.00,,,0.00,WUHU21623XXSP,2013-04-26 21:34:00,
2013-04-26 17:39:00,83.7,69.6,30.41,WNW,292,0.0,0.0,62,0.00,,,0.00,WUHU21623XXSP,2013-04-26 21:39:00,
2013-04-26 17:44:00,83.6,69.9,30.41,NNW,337,0.0,0.0,63,0.00,,,0.00,WUHU21623XXSP,2013-04-26 21:44:00,
2013-04-26 17:49:00,83.4,69.7,30.41,West,270,0.0,0.0,63,0.00,,,0.00,WUHU21623XXSP,2013-04-26 21:49:00,
2013-04-26 17:54:00,83.6,69.9,30.41,WNW,292,0.0,0.0,63,0.00,,,0.00,WUHU21623XXSP,2013-04-26 21:54:00,
2013-04-26 17:59:00,83.6,69.9,30.41,WNW,292,0.0,0.0,63,0.00,,,0.00,WUHU21623XXSP,2013-04-26 21:59:00,
2013-04-26 18:04:00,83.7,70.0,30.41,NNE,22,0.0,0.0,63,0.00,,,0.00,WUHU21623XXSP,2013-04-26 22:04:00,
2013-04-26 18:09:00,83.4,69.3,30.41,NW,315,0.0,0.0,62,0.00,,,0.00,WUHU21623XXSP,2013-04-26 22:09:00,
2013-04-26 18:14:00,83.0,68.9,30.41,North,0,0.0,0.0,62,0.00,,,0.00,WUHU21623XXSP,2013-04-26 22:14:00,
2013-04-26 18:19:00,82.8,69.2,30.41,NW,315,0.0,0.0,63,0.00,,,0.00,WUHU21623XXSP,2013-04-26 22:19:00,
2013-04-26 18:24:00,82.7,69.1,30.41,West,270,0.0,0.0,63,0.00,,,0.00,WUHU21623XXSP,2013-04-26 22:24:00,
2013-04-26 18:29:00,82.5,69.4,30.41,West,270,0.0,0.0,64,0.00,,,0.00,WUHU21623XXSP,2013-04-26 22:29:00,
2013-04-26 18:34:00,82.5,68.9,30.41,NNW,337,0.0,0.0,63,0.00,,,0.00,WUHU21623XXSP,2013-04-26 22:34:00,
2013-04-26 18:39:00,82.3,68.7,30.40,NNW,337,0.0,0.0,63,0.00,,,0.00,WUHU21623XXSP,2013-04-26 22:39:00,
2013-04-26 18:44:00,82.5,68.9,30.40,WNW,292,0.0,0.0,63,0.00,,,0.00,WUHU21623XXSP,2013-04-26 22:44:00,
2013-04-26 18:49:00,82.8,69.2,30.41,WNW,292,0.0,0.0,63,0.00,,,0.00,WUHU21623XXSP,2013-04-26 22:49:00,
2013-04-26 18:54:00,83.0,69.4,30.41,NNW,337,0.0,0.0,63,0.00,,,0.00,WUHU21623XXSP,2013-04-26 22:54:00,
2013-04-26 18:59:00,82.8,69.2,30.41,WNW,292,0.0,0.0,63,0.00,,,0.00,WUHU21623XXSP,2013-04-26 22:59:00,
2013-04-26 19:04:00,82.5,68.9,30.41,NW,315,0.0,0.0,63,0.00,,,0.00,WUHU21623XXSP,2013-04-26 23:04:00,
2013-04-26 19:10:00,82.5,69.4,30.41,NNW,337,0.0,0.0,64,0.00,,,0.00,WUHU21623XXSP,2013-04-26 23:10:00,
2013-04-26 19:14:00,82.1,69.0,30.41,WNW,292,0.0,0.0,64,0.00,,,0.00,WUHU21623XXSP,2013-04-26 23:14:00,
2013-04-26 19:20:00,81.6,68.5,30.41,NNW,337,0.0,0.0,64,0.00,,,0.00,WUHU21623XXSP,2013-04-26 23:20:00,
2013-04-26 19:25:00,80.7,68.1,30.41,NNW,337,0.0,0.0,65,0.00,,,0.00,WUHU21623XXSP,2013-04-26 23:25:00,
2013-04-26 19:30:00,80.3,68.1,30.42,NW,315,0.0,0.0,66,0.00,,,0.00,WUHU21623XXSP,2013-04-26 23:30:00,
2013-04-26 19:35:00,79.8,68.1,30.41,NNW,337,0.0,0.0,67,0.00,,,0.00,WUHU21623XXSP,2013-04-26 23:35:00,
2013-04-26 19:40:00,79.4,67.7,30.41,NW,315,0.0,0.0,67,0.00,,,0.00,WUHU21623XXSP,2013-04-26 23:40:00,
2013-04-26 19:45:00,78.9,67.7,30.41,NW,315,0.0,0.0,68,0.00,,,0.00,WUHU21623XXSP,2013-04-26 23:45:00,
2013-04-26 19:50:00,78.3,67.5,30.41,NNW,337,0.0,0.0,69,0.00,,,0.00,WUHU21623XXSP,2013-04-26 23:50:00,
2013-04-26 19:54:00,78.0,67.2,30.41,NW,315,0.0,0.0,69,0.00,,,0.00,WUHU21623XXSP,2013-04-26 23:54:00,
2013-04-26 20:05:00,77.4,67.1,30.41,WNW,292,0.0,0.0,70,0.00,,,0.00,WUHU21623XXSP,2013-04-27 00:05:00,
2013-04-26 20:10:00,77.1,66.8,30.41,North,0,0.0,0.0,70,0.00,,,0.00,WUHU21623XXSP,2013-04-27 00:10:00,
2013-04-26 20:15:00,76.9,66.6,30.42,NW,315,0.0,0.0,70,0.00,,,0.00,WUHU21623XXSP,2013-04-27 00:15:00,
2013-04-26 20:20:00,76.7,66.8,30.42,NNW,337,0.0,0.0,71,0.00,,,0.00,WUHU21623XXSP,2013-04-27 00:20:00,
2013-04-26 20:25:00,76.5,67.0,30.42,NW,315,0.0,0.0,72,0.00,,,0.00,WUHU21623XXSP,2013-04-27 00:25:00,
2013-04-26 20:30:00,76.4,66.9,30.42,NW,315,0.0,0.0,72,0.00,,,0.00,WUHU21623XXSP,2013-04-27 00:30:00,
2013-04-26 20:35:00,76.2,67.1,30.42,NW,315,0.0,0.0,73,0.00,,,0.00,WUHU21623XXSP,2013-04-27 00:35:00,
2013-04-26 20:41:00,76.0,66.9,30.42,NNW,337,0.0,0.0,73,0.00,,,0.00,WUHU21623XXSP,2013-04-27 00:41:00,
2013-04-26 20:46:00,75.8,66.7,30.42,North,0,0.0,0.0,73,0.00,,,0.00,WUHU21623XXSP,2013-04-27 00:46:00,
2013-04-26 20:51:00,75.8,66.7,30.42,NW,315,0.0,0.0,73,0.00,,,0.00,WUHU21623XXSP,2013-04-27 00:51:00,
2013-04-26 20:56:00,75.6,66.9,30.42,NW,315,0.0,0.0,74,0.00,,,0.00,WUHU21623XXSP,2013-04-27 00:56:00,
2013-04-26 21:01:00,75.6,66.9,30.42,NNW,337,0.0,0.0,74,0.00,,,0.00,WUHU21623XXSP,2013-04-27 01:01:00,
2013-04-26 21:06:00,75.3,67.0,30.43,NNW,337,0.0,0.0,75,0.00,,,0.00,WUHU21623XXSP,2013-04-27 01:06:00,
2013-04-26 21:11:00,75.3,67.4,30.43,NNW,337,0.0,0.0,76,0.00,,,0.00,WUHU21623XXSP,2013-04-27 01:11:00,
2013-04-26 21:16:00,75.1,67.2,30.43,NW,315,0.0,0.0,76,0.00,,,0.00,WUHU21623XXSP,2013-04-27 01:16:00,
2013-04-26 21:21:00,75.1,67.2,30.44,NW,315,0.0,0.0,76,0.00,,,0.00,WUHU21623XXSP,2013-04-27 01:21:00,
2013-04-26 21:26:00,74.9,67.0,30.43,NW,315,0.0,0.0,76,0.00,,,0.00,WUHU21623XXSP,2013-04-27 01:26:00,
2013-04-26 21:31:00,74.9,67.0,30.44,WNW,292,0.0,0.0,76,0.00,,,0.00,WUHU21623XXSP,2013-04-27 01:31:00,
2013-04-26 21:36:00,74.7,66.4,30.44,WNW,292,0.0,0.0,75,0.00,,,0.00,WUHU21623XXSP,2013-04-27 01:36:00,
2013-04-26 21:41:00,74.7,66.4,30.44,NNW,337,0.0,0.0,75,0.00,,,0.00,WUHU21623XXSP,2013-04-27 01:41:00,
2013-04-26 21:46:00,74.6,65.9,30.44,NNW,337,0.0,0.0,74,0.00,,,0.00,WUHU21623XXSP,2013-04-27 01:46:00,
2013-04-26 21:51:00,74.6,65.9,30.45,North,0,0.0,0.0,74,0.00,,,0.00,WUHU21623XXSP,2013-04-27 01:51:00,
2013-04-26 21:56:00,74.7,66.0,30.45,North,0,0.0,0.0,74,0.00,,,0.00,WUHU21623XXSP,2013-04-27 01:56:00,
2013-04-26 22:01:00,74.7,66.0,30.45,NNE,22,0.0,0.0,74,0.00,,,0.00,WUHU21623XXSP,2013-04-27 02:01:00,
2013-04-26 22:06:00,74.7,66.0,30.46,NNE,22,0.0,0.0,74,0.00,,,0.00,WUHU21623XXSP,2013-04-27 02:06:00,
2013-04-26 22:11:00,74.7,66.0,30.46,North,0,0.0,0.0,74,0.00,,,0.00,WUHU21623XXSP,2013-04-27 02:11:00,
2013-04-26 22:16:00,74.9,66.2,30.46,NNW,337,0.0,0.0,74,0.00,,,0.00,WUHU21623XXSP,2013-04-27 02:16:00,
2013-04-26 22:21:00,74.7,65.6,30.46,North,0,0.0,0.0,73,0.00,,,0.00,WUHU21623XXSP,2013-04-27 02:21:00,
2013-04-26 22:26:00,74.7,65.6,30.46,North,0,0.0,0.0,73,0.00,,,0.00,WUHU21623XXSP,2013-04-27 02:26:00,
2013-04-26 22:31:00,74.7,65.6,30.46,NE,45,0.0,0.0,73,0.00,,,0.00,WUHU21623XXSP,2013-04-27 02:31:00,
2013-04-26 22:36:00,74.7,65.6,30.46,North,0,0.0,0.0,73,0.00,,,0.00,WUHU21623XXSP,2013-04-27 02:36:00,
2013-04-26 22:41:00,74.7,65.3,30.46,North,0,0.0,0.0,72,0.00,,,0.00,WUHU21623XXSP,2013-04-27 02:41:00,
2013-04-26 22:46:00,74.6,65.2,30.47,North,0,0.0,0.0,72,0.00,,,0.00,WUHU21623XXSP,2013-04-27 02:46:00,
2013-04-26 22:51:00,74.4,65.0,30.46,North,0,0.0,0.0,72,0.00,,,0.00,WUHU21623XXSP,2013-04-27 02:51:00,
2013-04-26 22:56:00,74.2,64.8,30.47,North,0,0.0,0.0,72,0.00,,,0.00,WUHU21623XXSP,2013-04-27 02:56:00,
2013-04-26 23:01:00,74.0,65.0,30.46,North,0,0.0,0.0,73,0.00,,,0.00,WUHU21623XXSP,2013-04-27 03:01:00,
2013-04-26 23:06:00,73.8,64.8,30.46,North,0,0.0,0.0,73,0.00,,,0.00,WUHU21623XXSP,2013-04-27 03:06:00,
2013-04-26 23:11:00,73.8,65.2,30.46,North,0,0.0,0.0,74,0.00,,,0.00,WUHU21623XXSP,2013-04-27 03:11:00,
2013-04-26 23:17:00,73.5,64.9,30.47,North,0,0.0,0.0,74,0.00,,,0.00,WUHU21623XXSP,2013-04-27 03:17:00,
2013-04-26 23:22:00,73.3,64.7,30.47,NNE,22,0.0,0.0,74,0.00,,,0.00,WUHU21623XXSP,2013-04-27 03:22:00,
2013-04-26 23:27:00,73.1,64.9,30.47,NNE,22,0.0,0.0,75,0.00,,,0.00,WUHU21623XXSP,2013-04-27 03:27:00,
2013-04-26 23:32:00,73.1,64.9,30.47,NE,45,0.0,0.0,75,0.00,,,0.00,WUHU21623XXSP,2013-04-27 03:32:00,
2013-04-26 23:37:00,73.1,65.2,30.47,ENE,67,0.0,0.0,76,0.00,,,0.00,WUHU21623XXSP,2013-04-27 03:37:00,
2013-04-26 23:42:00,73.1,65.2,30.47,ENE,67,0.0,0.0,76,0.00,,,0.00,WUHU21623XXSP,2013-04-27 03:42:00,
2013-04-26 23:47:00,73.1,65.6,30.46,NE,45,0.0,0.0,77,0.00,,,0.00,WUHU21623XXSP,2013-04-27 03:47:00,
2013-04-26 23:52:00,73.1,65.6,30.47,East,90,0.0,0.0,77,0.00,,,0.00,WUHU21623XXSP,2013-04-27 03:52:00,
2013-04-26 23:57:00,73.5,66.0,30.47,NE,45,0.0,0.0,77,0.00,,,0.00,WUHU21623XXSP,2013-04-27 03:57:00,